Time;durP1;ratioP1;P1;durP2;ratioP2;P2;SDS_P1;SDS_P2;PMS_P1;PMS_P2;Temp;Humidity;BMP_temperature;BMP_pressure;BME280_temperature;BME280_humidity;BME280_pressure;Samples;Min_cycle;Max_cycle;Signal;HPM_P1;HPM_P2
2024/01/01 00:01:40;;;;;;;38.07;27.47;;;;;;;5.35;100.00;97313.72;5093714;28;20221;-74
2024/01/01 00:04:06;;;;;;;39.17;28.00;;;;;;;5.44;100.00;97311.69;5093723;28;20208;-74
2024/01/01 00:06:33;;;;;;;36.47;26.33;;;;;;;5.52;100.00;97316.75;5093516;28;20207;-74
2024/01/01 00:08:59;;;;;;;34.20;26.47;;;;;;;5.47;100.00;97311.28;5093388;28;20206;-74
2024/01/01 00:11:25;;;;;;;31.87;22.97;;;;;;;5.44;100.00;97316.94;5093423;28;20206;-74
2024/01/01 00:13:52;;;;;;;33.43;21.53;;;;;;;5.42;100.00;97329.53;5093550;28;20200;-74
2024/01/01 00:16:18;;;;;;;26.30;19.90;;;;;;;5.45;100.00;97326.47;5093546;28;20203;-74
2024/01/01 00:18:44;;;;;;;24.37;17.57;;;;;;;5.41;100.00;97318.16;5093245;28;20210;-74
2024/01/01 00:21:11;;;;;;;22.47;16.20;;;;;;;5.38;100.00;97313.28;5093702;28;20256;-75
2024/01/01 00:23:37;;;;;;;20.40;15.10;;;;;;;5.30;100.00;97315.34;5098211;28;20210;-74
2024/01/01 00:26:06;;;;;;;22.37;15.53;;;;;;;5.34;100.00;97306.81;5097593;28;20689;-74
2024/01/01 00:28:32;;;;;;;18.13;13.53;;;;;;;5.37;100.00;97305.59;5097800;28;20203;-74
2024/01/01 00:30:58;;;;;;;19.90;12.93;;;;;;;5.45;100.00;97308.84;5097538;28;20227;-74
2024/01/01 00:33:25;;;;;;;18.43;12.53;;;;;;;5.45;100.00;97316.75;5097050;28;20226;-74
2024/01/01 00:35:51;;;;;;;18.57;12.57;;;;;;;5.47;100.00;97311.28;5097556;28;20208;-74
2024/01/01 00:38:17;;;;;;;15.03;11.47;;;;;;;5.48;100.00;97307.63;5097357;28;20261;-74
2024/01/01 00:40:44;;;;;;;14.90;11.23;;;;;;;5.34;100.00;97306.81;5097364;28;20273;-74
2024/01/01 00:43:11;;;;;;;16.00;10.83;;;;;;;5.30;100.00;97300.31;5097346;28;20204;-74
2024/01/01 00:45:37;;;;;;;15.23;10.43;;;;;;;5.29;100.00;97293.44;5097287;28;20204;-74
2024/01/01 00:48:04;;;;;;;14.27;9.73;;;;;;;5.25;100.00;97292.22;5097050;28;20218;-74
2024/01/01 00:50:30;;;;;;;16.30;10.37;;;;;;;5.29;100.00;97296.06;5096759;28;20779;-74
2024/01/01 00:52:57;;;;;;;14.57;9.83;;;;;;;5.31;100.00;97282.69;5097024;28;20219;-74
2024/01/01 00:55:23;;;;;;;15.50;10.67;;;;;;;5.29;100.00;97292.66;5096979;28;20203;-74
2024/01/01 00:57:49;;;;;;;17.30;10.17;;;;;;;5.33;100.00;97291.22;5096991;28;20298;-74
2024/01/01 01:00:16;;;;;;;15.83;9.50;;;;;;;5.37;100.00;97298.50;5097028;28;20220;-74
2024/01/01 01:02:42;;;;;;;15.33;10.53;;;;;;;5.33;100.00;97289.38;5096982;28;20211;-74
2024/01/01 01:05:09;;;;;;;12.10;9.17;;;;;;;5.30;100.00;97289.00;5097431;28;20211;-74
2024/01/01 01:07:36;;;;;;;12.47;9.77;;;;;;;5.20;100.00;97305.19;5096911;28;20212;-74
2024/01/01 01:10:04;;;;;;;13.43;9.83;;;;;;;5.25;100.00;97301.97;5096292;28;20253;-74
2024/01/01 01:12:30;;;;;;;14.40;9.10;;;;;;;5.29;100.00;97309.25;5096707;28;20220;-74
2024/01/01 01:14:57;;;;;;;12.53;9.47;;;;;;;5.30;100.00;97299.53;5096759;28;20572;-74
2024/01/01 01:17:23;;;;;;;12.07;9.33;;;;;;;5.27;100.00;97306.03;5096701;28;20208;-74
2024/01/01 01:19:49;;;;;;;12.30;8.93;;;;;;;5.41;100.00;97309.44;5096102;28;20714;-74
2024/01/01 01:22:16;;;;;;;13.40;9.00;;;;;;;5.41;100.00;97310.25;5096750;28;20207;-74
2024/01/01 01:24:42;;;;;;;12.03;8.70;;;;;;;5.44;100.00;97322.22;5096236;28;20214;-74
2024/01/01 01:27:08;;;;;;;10.90;9.00;;;;;;;5.40;100.00;97321.81;5096578;28;20204;-74
2024/01/01 01:29:35;;;;;;;16.63;9.03;;;;;;;5.41;100.00;97328.72;5096281;28;20627;-74
2024/01/01 01:32:01;;;;;;;10.57;8.30;;;;;;;5.45;100.00;97329.09;5095751;28;20219;-74
2024/01/01 01:34:27;;;;;;;13.70;8.80;;;;;;;5.52;100.00;97325.44;5096468;28;20203;-74
2024/01/01 01:36:54;;;;;;;10.93;8.10;;;;;;;5.55;100.00;97326.84;5096045;28;20541;-74
2024/01/01 01:39:20;;;;;;;11.70;8.37;;;;;;;5.54;100.00;97328.69;5096417;28;20230;-74
2024/01/01 01:41:48;;;;;;;14.83;8.90;;;;;;;5.44;100.00;97330.94;5096141;28;20203;-74
2024/01/01 01:44:14;;;;;;;11.27;7.97;;;;;;;5.39;100.00;97317.53;5096282;28;20570;-74
2024/01/01 01:46:41;;;;;;;12.43;7.60;;;;;;;5.35;100.00;97316.34;5095903;28;20586;-74
2024/01/01 01:49:08;;;;;;;13.13;8.10;;;;;;;5.17;100.00;97320.59;5095580;28;20733;-74
2024/01/01 01:51:34;;;;;;;12.77;8.03;;;;;;;5.11;100.00;97316.94;5096379;28;20204;-74
2024/01/01 01:54:01;;;;;;;11.77;8.00;;;;;;;5.14;100.00;97327.09;5095927;28;20227;-74
2024/01/01 01:56:29;;;;;;;12.03;8.27;;;;;;;4.97;100.00;97311.91;5095966;28;20231;-74
2024/01/01 01:58:55;;;;;;;13.87;9.00;;;;;;;4.91;100.00;97312.69;5095569;28;20210;-74
2024/01/01 02:01:22;;;;;;;11.13;8.07;;;;;;;4.82;100.00;97313.88;5095734;28;20204;-74
2024/01/01 02:03:48;;;;;;;12.50;7.50;;;;;;;5.00;100.00;97314.94;5095165;28;20200;-74
2024/01/01 02:06:15;;;;;;;9.87;7.40;;;;;;;5.05;100.00;97320.41;5095366;28;20215;-74
2024/01/01 02:08:41;;;;;;;11.87;8.33;;;;;;;5.04;100.00;97320.59;5095342;28;20210;-74
2024/01/01 02:11:07;;;;;;;19.27;13.30;;;;;;;5.02;100.00;97312.91;5095601;28;20377;-74
2024/01/01 02:13:34;;;;;;;11.40;8.47;;;;;;;5.06;100.00;97308.84;5095733;28;20227;-74
2024/01/01 02:16:00;;;;;;;9.83;7.53;;;;;;;5.10;100.00;97319.78;5095597;28;20666;-74
2024/01/01 02:18:27;;;;;;;9.43;6.20;;;;;;;5.19;100.00;97311.50;5095684;28;20208;-74
2024/01/01 02:20:53;;;;;;;7.30;5.27;;;;;;;5.26;100.00;97316.75;5095328;28;20219;-74
2024/01/01 02:23:19;;;;;;;7.63;5.30;;;;;;;5.29;100.00;97308.47;5095425;28;20204;-74
2024/01/01 02:25:46;;;;;;;7.03;5.03;;;;;;;5.37;100.00;97313.50;5095339;28;20663;-74
2024/01/01 02:28:14;;;;;;;10.23;5.70;;;;;;;5.41;100.00;97306.81;5095383;28;20207;-74
2024/01/01 02:30:40;;;;;;;12.10;6.60;;;;;;;5.37;100.00;97309.03;5095189;28;20236;-74
2024/01/01 02:33:08;;;;;;;9.23;6.67;;;;;;;5.47;100.00;97309.44;5095273;28;20231;-74
2024/01/01 02:35:35;;;;;;;8.80;6.40;;;;;;;5.47;100.00;97312.06;5095232;28;20203;-74
2024/01/01 02:38:04;;;;;;;8.83;6.40;;;;;;;5.31;100.00;97316.97;5095222;28;20206;-74
2024/01/01 02:40:33;;;;;;;9.90;6.83;;;;;;;5.21;100.00;97311.28;5094956;28;20223;-74
2024/01/01 02:43:01;;;;;;;8.73;6.37;;;;;;;5.30;100.00;97318.75;5094726;28;20218;-74
2024/01/01 02:45:29;;;;;;;9.07;6.87;;;;;;;5.40;100.00;97327.09;5094084;28;20231;-74
2024/01/01 02:47:55;;;;;;;9.83;5.93;;;;;;;5.44;100.00;97323.03;5094632;28;20216;-74
2024/01/01 02:50:22;;;;;;;8.60;5.43;;;;;;;5.45;100.00;97323.84;5094828;28;20305;-74
2024/01/01 02:52:49;;;;;;;8.47;5.80;;;;;;;5.42;100.00;97319.78;5094914;28;20230;-74
2024/01/01 02:55:16;;;;;;;9.63;6.10;;;;;;;5.43;100.00;97318.75;5095001;28;20208;-74
2024/01/01 02:57:43;;;;;;;7.53;5.80;;;;;;;5.39;100.00;97306.22;5094837;28;20204;-74
2024/01/01 03:00:10;;;;;;;7.07;5.00;;;;;;;5.31;100.00;97316.97;5095058;28;20560;-74
2024/01/01 03:02:38;;;;;;;8.43;5.40;;;;;;;5.20;100.00;97321.00;5094769;28;20200;-74
2024/01/01 03:05:06;;;;;;;9.00;5.73;;;;;;;5.14;100.00;97313.09;5094793;28;20208;-74
2024/01/01 03:07:33;;;;;;;9.80;5.40;;;;;;;5.30;100.00;97313.50;5094482;28;20207;-74
2024/01/01 03:10:00;;;;;;;8.67;4.97;;;;;;;5.23;100.00;97320.63;5094567;28;20252;-74
2024/01/01 03:12:27;;;;;;;9.57;5.47;;;;;;;5.22;100.00;97315.53;5094184;28;20224;-74
2024/01/01 03:14:54;;;;;;;7.83;4.87;;;;;;;5.16;100.00;97319.00;5094652;28;20207;-74
2024/01/01 03:17:20;;;;;;;7.87;5.00;;;;;;;5.15;100.00;97322.66;5094236;28;20204;-74
2024/01/01 03:19:46;;;;;;;9.93;5.53;;;;;;;5.01;100.00;97336.81;5093942;28;20232;-74
2024/01/01 03:22:13;;;;;;;6.83;4.80;;;;;;;4.90;100.00;97345.31;5094240;28;20208;-74
2024/01/01 03:24:39;;;;;;;8.17;6.10;;;;;;;4.87;100.00;97343.06;5093857;28;20204;-74
2024/01/01 03:27:05;;;;;;;8.87;5.70;;;;;;;4.80;100.00;97348.31;5093955;28;20216;-74
2024/01/01 03:29:32;;;;;;;7.00;5.50;;;;;;;4.78;100.00;97347.72;5093882;28;20227;-74
2024/01/01 03:31:58;;;;;;;9.03;5.70;;;;;;;4.93;100.00;97345.72;5094133;28;20208;-74
2024/01/01 03:34:25;;;;;;;7.17;5.33;;;;;;;4.97;100.00;97349.56;5094094;28;20232;-74
2024/01/01 03:36:51;;;;;;;9.03;5.47;;;;;;;5.01;100.00;97342.06;5094157;28;20204;-74
2024/01/01 03:39:17;;;;;;;8.97;6.17;;;;;;;5.05;100.00;97344.13;5093674;28;20231;-74
2024/01/01 03:41:44;;;;;;;8.37;5.77;;;;;;;5.14;100.00;97344.72;5094049;28;20226;-74
2024/01/01 03:44:10;;;;;;;8.83;5.77;;;;;;;5.14;100.00;97337.63;5094028;28;20199;-74
2024/01/01 03:46:37;;;;;;;9.23;5.43;;;;;;;5.28;100.00;97339.25;5093968;28;20262;-74
2024/01/01 03:49:03;;;;;;;7.77;5.10;;;;;;;5.24;100.00;97348.56;5093533;28;20216;-74
2024/01/01 03:51:29;;;;;;;9.23;5.23;;;;;;;5.29;100.00;97345.34;5093541;28;20208;-74
2024/01/01 03:53:56;;;;;;;7.93;5.10;;;;;;;5.29;100.00;97347.97;5094024;28;20215;-74
2024/01/01 03:56:23;;;;;;;9.67;4.90;;;;;;;5.39;100.00;97345.75;5093595;28;20204;-74
2024/01/01 03:58:49;;;;;;;6.70;5.10;;;;;;;5.33;100.00;97342.09;5093517;28;20567;-74
2024/01/01 04:01:16;;;;;;;7.67;4.83;;;;;;;5.32;100.00;97344.91;5093449;28;20685;-74
2024/01/01 04:03:42;;;;;;;8.30;4.97;;;;;;;5.26;100.00;97341.28;5093413;28;20249;-74
2024/01/01 04:06:09;;;;;;;7.17;5.20;;;;;;;5.18;100.00;97353.84;5093432;28;20221;-74
2024/01/01 04:08:35;;;;;;;7.13;4.83;;;;;;;5.06;100.00;97348.38;5093259;28;20607;-74
2024/01/01 04:11:02;;;;;;;8.13;5.00;;;;;;;5.03;100.00;97361.13;5093311;28;20228;-74
2024/01/01 04:13:28;;;;;;;7.10;4.90;;;;;;;4.99;100.00;97346.75;5092943;28;20220;-74
2024/01/01 04:15:54;;;;;;;7.03;4.60;;;;;;;4.98;100.00;97347.75;5093158;28;20207;-74
2024/01/01 04:18:21;;;;;;;5.17;3.87;;;;;;;4.99;100.00;97352.81;5093437;28;20211;-74
2024/01/01 04:20:47;;;;;;;7.80;4.40;;;;;;;4.80;100.00;97340.41;5093378;28;20219;-74
2024/01/01 04:23:13;;;;;;;10.00;4.40;;;;;;;4.78;100.00;97354.78;5093434;28;20204;-74
2024/01/01 04:25:40;;;;;;;8.40;4.53;;;;;;;4.69;100.00;97358.63;5093509;28;20206;-74
2024/01/01 04:28:06;;;;;;;7.83;3.90;;;;;;;4.84;100.00;97352.19;5094057;28;20210;-74
2024/01/01 04:30:32;;;;;;;9.30;4.10;;;;;;;4.82;100.00;97359.47;5093113;28;20737;-74
2024/01/01 04:32:59;;;;;;;8.33;3.33;;;;;;;4.78;100.00;97362.69;5093079;28;20220;-74
2024/01/01 04:35:26;;;;;;;4.53;3.20;;;;;;;4.75;100.00;97348.09;5093251;28;20332;-74
2024/01/01 04:37:52;;;;;;;4.97;3.17;;;;;;;4.77;100.00;97350.53;5092817;28;20242;-74
2024/01/01 04:40:20;;;;;;;5.87;3.07;;;;;;;4.80;100.00;97343.06;5092659;28;20733;-74
2024/01/01 04:42:48;;;;;;;4.80;2.53;;;;;;;4.84;100.00;97340.84;5093117;28;20208;-74
2024/01/01 04:45:15;;;;;;;4.80;2.57;;;;;;;4.86;100.00;97344.09;5093433;28;20678;-74
2024/01/01 04:47:41;;;;;;;4.10;2.40;;;;;;;4.80;100.00;97332.53;5092995;28;20222;-74
2024/01/01 04:50:08;;;;;;;6.67;2.97;;;;;;;4.74;100.00;97340.44;5093028;28;20226;-74
2024/01/01 04:52:35;;;;;;;6.87;2.97;;;;;;;4.69;100.00;97335.75;5093128;28;20275;-74
2024/01/01 04:55:01;;;;;;;4.17;2.60;;;;;;;4.60;100.00;97336.13;5093294;28;20207;-74
2024/01/01 04:57:27;;;;;;;5.33;2.80;;;;;;;4.62;100.00;97342.81;5093248;28;20211;-74
2024/01/01 04:59:54;;;;;;;4.90;2.77;;;;;;;4.55;100.00;97349.91;5092795;28;20228;-74
2024/01/01 05:02:20;;;;;;;5.67;2.47;;;;;;;4.58;100.00;97360.03;5092872;28;20203;-74
2024/01/01 05:04:46;;;;;;;3.93;1.90;;;;;;;4.59;100.00;97355.56;5092796;28;20214;-74
2024/01/01 05:07:13;;;;;;;5.50;1.90;;;;;;;4.67;100.00;97360.66;5093381;28;20207;-74
2024/01/01 05:09:43;;;;;;;3.87;1.90;;;;;;;4.59;100.00;97361.66;5097011;28;20220;-74
2024/01/01 05:12:09;;;;;;;3.87;2.07;;;;;;;4.56;100.00;97362.03;5097634;28;20200;-74
2024/01/01 05:14:38;;;;;;;3.80;1.70;;;;;;;4.68;100.00;97364.91;5096390;28;20231;-74
2024/01/01 05:17:05;;;;;;;2.73;1.20;;;;;;;4.91;100.00;97354.81;5096660;28;20199;-74
2024/01/01 05:19:31;;;;;;;5.03;1.70;;;;;;;4.93;100.00;97369.41;5096567;28;20230;-74
2024/01/01 05:21:58;;;;;;;4.93;1.57;;;;;;;4.98;100.00;97376.72;5096639;28;20199;-74
2024/01/01 05:24:24;;;;;;;3.10;1.40;;;;;;;4.88;100.00;97373.69;5096230;28;20729;-74
2024/01/01 05:26:50;;;;;;;4.80;1.60;;;;;;;4.79;100.00;97372.25;5096609;28;20203;-74
2024/01/01 05:29:17;;;;;;;3.10;1.30;;;;;;;4.83;100.00;97374.25;5096698;28;20223;-74
2024/01/01 05:31:43;;;;;;;4.87;1.80;;;;;;;4.82;100.00;97385.81;5096609;28;20215;-74
2024/01/01 05:34:09;;;;;;;3.00;1.70;;;;;;;4.77;100.00;97377.69;5096400;28;20224;-74
2024/01/01 05:36:36;;;;;;;4.80;1.47;;;;;;;4.83;100.00;97381.34;5095847;28;20210;-74
2024/01/01 05:39:03;;;;;;;4.37;1.40;;;;;;;4.90;100.00;97390.91;5096098;28;20203;-74
2024/01/01 05:41:30;;;;;;;1.63;1.30;;;;;;;4.96;100.00;97391.91;5096234;28;20220;-74
2024/01/01 05:43:56;;;;;;;5.50;1.90;;;;;;;4.96;100.00;97405.91;5096111;28;20243;-74
2024/01/01 05:46:23;;;;;;;1.80;1.00;;;;;;;4.93;100.00;97392.31;5095849;28;20219;-74
2024/01/01 05:48:50;;;;;;;4.00;1.37;;;;;;;4.99;100.00;97402.06;5095754;28;20223;-74
2024/01/01 05:51:16;;;;;;;5.03;1.10;;;;;;;5.00;100.00;97409.75;5096036;28;20566;-74
2024/01/01 05:53:42;;;;;;;3.63;1.20;;;;;;;5.08;100.00;97414.84;5095828;28;20224;-74
2024/01/01 05:56:09;;;;;;;3.23;1.17;;;;;;;5.16;100.00;97417.28;5095504;28;20206;-74
2024/01/01 05:58:35;;;;;;;4.47;1.10;;;;;;;5.20;100.00;97410.59;5095528;28;20573;-74
2024/01/01 06:01:03;;;;;;;2.97;1.30;;;;;;;5.24;100.00;97416.28;5095813;28;20234;-74
2024/01/01 06:03:30;;;;;;;2.57;1.07;;;;;;;5.26;100.00;97417.72;5095840;28;20250;-74
2024/01/01 06:05:56;;;;;;;4.17;1.20;;;;;;;5.27;100.00;97414.06;5095256;28;20565;-74
2024/01/01 06:08:22;;;;;;;4.13;1.60;;;;;;;5.21;100.00;97424.59;5095178;28;20574;-74
2024/01/01 06:10:49;;;;;;;2.47;1.50;;;;;;;5.21;100.00;97411.41;5095508;28;20224;-74
2024/01/01 06:13:15;;;;;;;3.90;1.30;;;;;;;5.36;100.00;97419.94;5095514;28;20259;-74
2024/01/01 06:15:42;;;;;;;4.33;1.60;;;;;;;5.27;100.00;97426.41;5095565;28;20212;-74
2024/01/01 06:18:08;;;;;;;2.30;1.03;;;;;;;5.15;100.00;97431.47;5095189;28;20568;-74
2024/01/01 06:20:34;;;;;;;1.77;1.30;;;;;;;5.19;100.00;97416.88;5095408;28;20220;-74
2024/01/01 06:23:01;;;;;;;1.63;1.37;;;;;;;5.18;100.00;97422.34;5095478;28;20211;-74
2024/01/01 06:25:27;;;;;;;3.33;1.43;;;;;;;5.10;100.00;97425.16;5095469;28;20200;-74
2024/01/01 06:27:54;;;;;;;5.03;1.40;;;;;;;5.06;100.00;97442.41;5095736;28;20208;-74
2024/01/01 06:30:20;;;;;;;3.20;1.57;;;;;;;5.08;100.00;97425.38;5094985;28;20315;-74
2024/01/01 06:32:47;;;;;;;3.00;1.67;;;;;;;5.06;100.00;97432.66;5095372;28;20206;-74
2024/01/01 06:35:13;;;;;;;5.57;1.60;;;;;;;5.08;100.00;97438.56;5095166;28;20219;-74
2024/01/01 06:37:40;;;;;;;3.43;1.53;;;;;;;4.97;100.00;97433.84;5095123;28;20199;-75
2024/01/01 06:40:08;;;;;;;4.80;1.40;;;;;;;4.86;100.00;97439.72;5094755;28;20227;-74
2024/01/01 06:42:34;;;;;;;2.83;1.40;;;;;;;4.78;100.00;97446.94;5094772;28;20208;-74
2024/01/01 06:45:10;;;;;;;3.33;1.30;;;;;;;4.71;100.00;97443.50;5094919;28;20667;-74
2024/01/01 06:47:36;;;;;;;3.20;1.33;;;;;;;4.54;100.00;97447.47;5095371;28;20211;-74
2024/01/01 06:50:03;;;;;;;4.33;1.73;;;;;;;4.44;100.00;97457.56;5094861;28;20236;-74
2024/01/01 06:52:29;;;;;;;5.10;1.70;;;;;;;4.37;100.00;97448.78;5094817;28;20199;-74
2024/01/01 06:54:57;;;;;;;5.17;1.50;;;;;;;4.31;100.00;97447.78;5095243;28;20247;-74
2024/01/01 06:57:23;;;;;;;3.40;1.73;;;;;;;4.20;100.00;97444.88;5094859;28;20204;-74
2024/01/01 06:59:50;;;;;;;4.97;1.83;;;;;;;4.22;100.00;97446.31;5094780;28;20228;-74
2024/01/01 07:02:16;;;;;;;5.10;1.60;;;;;;;4.27;100.00;97458.88;5094809;28;20199;-74
2024/01/01 07:04:42;;;;;;;3.13;1.60;;;;;;;4.21;100.00;97452.56;5094703;28;20207;-74
2024/01/01 07:07:09;;;;;;;3.57;1.50;;;;;;;4.19;100.00;97464.28;5094248;28;20206;-74
2024/01/01 07:09:35;;;;;;;4.80;1.47;;;;;;;4.28;100.00;97463.94;5093801;28;20702;-74
2024/01/01 07:12:21;;;;;;;5.27;1.57;;;;;;;4.24;100.00;97470.59;5094884;28;20286;-74
2024/01/01 07:14:48;;;;;;;4.00;1.10;;;;;;;4.31;100.00;97474.09;5094076;28;20207;-74
2024/01/01 07:17:14;;;;;;;4.60;1.20;;;;;;;4.38;100.00;97474.13;5093905;28;20210;-74
2024/01/01 07:19:41;;;;;;;4.13;1.20;;;;;;;4.47;100.00;97484.28;5093594;28;20735;-74
2024/01/01 07:22:07;;;;;;;7.67;1.40;;;;;;;4.55;100.00;97483.31;5093901;28;20208;-74
2024/01/01 07:24:33;;;;;;;2.13;1.00;;;;;;;4.65;100.00;97495.09;5094377;28;20196;-74
2024/01/01 07:27:00;;;;;;;3.33;1.30;;;;;;;4.68;100.00;97499.16;5094066;28;20290;-74
2024/01/01 07:29:27;;;;;;;4.63;1.07;;;;;;;4.78;100.00;97503.06;5093963;28;20235;-74
2024/01/01 07:31:53;;;;;;;4.67;1.00;;;;;;;4.72;100.00;97498.59;5093522;28;20575;-74
2024/01/01 07:34:20;;;;;;;4.50;1.33;;;;;;;4.83;100.00;97486.66;5094147;28;20223;-74
2024/01/01 07:36:47;;;;;;;4.60;1.00;;;;;;;4.81;100.00;97496.59;5094133;28;20219;-74
2024/01/01 07:39:19;;;;;;;5.83;1.13;;;;;;;4.89;100.00;97485.91;5093328;28;20230;-74
2024/01/01 07:41:48;;;;;;;3.70;1.10;;;;;;;4.97;100.00;97489.16;5093923;28;20206;-74
2024/01/01 07:44:15;;;;;;;3.60;1.20;;;;;;;4.87;100.00;97498.44;5093767;28;20200;-74
2024/01/01 07:46:49;;;;;;;8.13;1.20;;;;;;;4.82;100.00;97493.78;5093496;28;20215;-74
2024/01/01 07:49:16;;;;;;;2.97;0.93;;;;;;;4.87;100.00;97490.53;5093629;28;20599;-74
2024/01/01 07:51:43;;;;;;;5.00;1.17;;;;;;;4.84;100.00;97486.47;5093905;28;20208;-74
2024/01/01 07:54:09;;;;;;;3.17;1.17;;;;;;;4.81;100.00;97497.44;5093444;28;20223;-74
2024/01/01 07:56:37;;;;;;;3.13;0.90;;;;;;;5.03;100.00;97484.94;5093736;28;20211;-74
2024/01/01 07:59:04;;;;;;;4.03;1.03;;;;;;;5.08;100.00;97490.41;5093749;28;20239;-74
2024/01/01 08:01:30;;;;;;;4.33;1.00;;;;;;;5.04;100.00;97494.47;5093450;28;20214;-74
2024/01/01 08:03:56;;;;;;;5.80;1.17;;;;;;;4.99;100.00;97505.59;5093597;28;20210;-74
2024/01/01 08:06:23;;;;;;;3.63;0.97;;;;;;;5.04;100.00;97507.63;5093283;28;20686;-74
2024/01/01 08:08:49;;;;;;;4.53;0.90;;;;;;;5.02;100.00;97515.72;5093425;28;20204;-74
2024/01/01 08:11:15;;;;;;;3.43;1.13;;;;;;;4.99;100.00;97521.41;5093345;28;20203;-74
2024/01/01 08:13:42;;;;;;;3.67;1.00;;;;;;;5.05;100.00;97527.69;5093469;28;20210;-74
2024/01/01 08:16:08;;;;;;;3.90;1.03;;;;;;;5.11;100.00;97538.25;5093534;28;20204;-74
2024/01/01 08:18:34;;;;;;;4.47;1.03;;;;;;;5.11;100.00;97545.34;5093493;28;20200;-74
2024/01/01 08:21:01;;;;;;;6.40;1.30;;;;;;;5.23;100.00;97547.22;5093494;28;20231;-74
2024/01/01 08:23:27;;;;;;;2.53;0.80;;;;;;;5.40;100.00;97537.13;5093400;28;20203;-74
2024/01/01 08:25:53;;;;;;;3.40;0.93;;;;;;;5.56;100.00;97547.31;5093377;28;20204;-74
2024/01/01 08:28:20;;;;;;;4.73;0.90;;;;;;;5.71;100.00;97551.41;5093469;28;20203;-74
2024/01/01 08:30:48;;;;;;;4.47;1.00;;;;;;;5.77;100.00;97552.41;5093378;28;20220;-74
2024/01/01 08:33:16;;;;;;;2.93;1.00;;;;;;;5.77;100.00;97544.50;5093103;28;20739;-74
2024/01/01 08:35:42;;;;;;;4.33;1.17;;;;;;;5.78;100.00;97554.84;5093304;28;20228;-74
2024/01/01 08:38:09;;;;;;;3.70;1.10;;;;;;;5.80;100.00;97550.25;5093240;28;20233;-74
2024/01/01 08:40:35;;;;;;;3.30;0.90;;;;;;;5.80;100.00;97536.19;5093166;28;20223;-74
2024/01/01 08:43:02;;;;;;;2.83;1.20;;;;;;;5.78;100.00;97536.41;5094964;28;20207;-74
2024/01/01 08:45:28;;;;;;;6.43;1.10;;;;;;;5.86;100.00;97538.88;5097246;28;20206;-74
2024/01/01 08:47:54;;;;;;;6.40;0.90;;;;;;;5.92;100.00;97537.25;5096986;28;20215;-74
2024/01/01 08:50:21;;;;;;;1.57;0.87;;;;;;;5.94;100.00;97541.31;5097364;28;20224;-74
2024/01/01 08:52:47;;;;;;;3.67;0.93;;;;;;;5.89;100.00;97542.94;5097179;28;20203;-74
2024/01/01 08:55:13;;;;;;;2.63;0.90;;;;;;;5.95;100.00;97542.13;5097259;28;20234;-74
2024/01/01 08:57:41;;;;;;;2.37;1.00;;;;;;;5.98;100.00;97534.59;5097068;28;20208;-74
2024/01/01 09:00:08;;;;;;;3.53;1.13;;;;;;;6.06;100.00;97538.91;5096890;28;20251;-74
2024/01/01 09:02:35;;;;;;;4.23;1.20;;;;;;;6.13;100.00;97537.88;5096802;28;20200;-74
2024/01/01 09:05:01;;;;;;;5.17;1.20;;;;;;;6.15;100.00;97538.47;5096940;28;20207;-74
2024/01/01 09:07:27;;;;;;;3.00;1.07;;;;;;;6.22;100.00;97538.47;5096814;28;20257;-74
2024/01/01 09:09:54;;;;;;;4.57;1.37;;;;;;;6.31;100.00;97551.25;5096615;28;20230;-74
2024/01/01 09:12:20;;;;;;;3.27;0.87;;;;;;;6.38;100.00;97541.50;5096227;28;20214;-74
2024/01/01 09:14:46;;;;;;;3.37;1.27;;;;;;;6.34;100.00;97547.41;5096794;28;20227;-74
2024/01/01 09:17:13;;;;;;;4.47;1.27;;;;;;;6.39;100.00;97560.78;5096645;28;20204;-74
2024/01/01 09:19:40;;;;;;;5.13;1.03;;;;;;;6.41;100.00;97546.38;5096503;28;20220;-74
2024/01/01 09:22:08;;;;;;;5.43;1.20;;;;;;;6.52;100.00;97563.44;5096342;28;20215;-74
2024/01/01 09:24:35;;;;;;;5.07;1.20;;;;;;;6.56;100.00;97567.28;5096490;28;20207;-75
2024/01/01 09:27:01;;;;;;;2.70;1.00;;;;;;;6.66;100.00;97567.66;5096027;28;20204;-75
2024/01/01 09:29:28;;;;;;;5.10;1.13;;;;;;;6.78;100.00;97569.47;5096020;28;20227;-75
2024/01/01 09:31:54;;;;;;;5.43;1.50;;;;;;;6.86;100.00;97574.53;5096078;28;20207;-75
2024/01/01 09:34:20;;;;;;;6.80;1.20;;;;;;;6.99;100.00;97571.03;5096333;28;20275;-75
2024/01/01 09:36:47;;;;;;;3.63;1.10;;;;;;;7.10;100.00;97573.06;5096507;28;20211;-75
2024/01/01 09:39:13;;;;;;;3.40;1.23;;;;;;;7.21;100.00;97578.50;5096068;28;20227;-75
2024/01/01 09:41:40;;;;;;;3.80;1.10;;;;;;;7.34;100.00;97582.91;5095874;28;20237;-75
2024/01/01 09:44:07;;;;;;;6.37;1.47;;;;;;;7.39;100.00;97589.22;5096062;28;20253;-75
2024/01/01 09:46:34;;;;;;;3.90;0.97;;;;;;;7.32;100.00;97584.94;5095985;28;20200;-75
2024/01/01 09:49:02;;;;;;;6.10;1.27;;;;;;;7.32;100.00;97590.22;5095606;28;20672;-74
2024/01/01 09:51:28;;;;;;;3.30;1.00;;;;;;;7.22;100.00;97580.13;5096222;28;20201;-74
2024/01/01 09:53:54;;;;;;;5.77;0.90;;;;;;;7.24;100.00;97586.00;5095555;28;20205;-74
2024/01/01 09:56:21;;;;;;;2.83;1.20;;;;;;;7.30;100.00;97577.25;5096000;28;20216;-74
2024/01/01 09:58:48;;;;;;;4.90;1.37;;;;;;;7.16;100.00;97574.84;5095406;28;20294;-72
2024/01/01 10:01:19;;;;;;;2.80;1.00;;;;;;;7.08;100.00;97567.97;5095758;28;20208;-72
2024/01/01 10:04:01;;;;;;;2.70;1.00;;;;;;;7.06;100.00;97567.34;5095236;28;20302;-72
2024/01/01 10:06:28;;;;;;;5.23;1.20;;;;;;;7.17;100.00;97579.94;5096316;28;20184;-75
2024/01/01 10:09:11;;;;;;;2.77;0.80;;;;;;;7.33;100.00;97571.50;5095431;28;20208;-72
2024/01/01 10:11:41;;;;;;;2.20;0.80;;;;;;;7.44;100.00;97575.34;5095511;28;20230;-72
2024/01/01 10:14:08;;;;;;;4.63;0.93;;;;;;;7.56;100.00;97569.16;5095269;28;20214;-72
2024/01/01 10:16:35;;;;;;;4.03;0.97;;;;;;;7.65;100.00;97567.09;5095367;28;20204;-72
2024/01/01 10:19:03;;;;;;;2.17;0.80;;;;;;;7.70;100.00;97569.91;5095244;28;20201;-72
2024/01/01 10:21:32;;;;;;;5.33;1.00;;;;;;;7.79;100.00;97566.78;5095577;28;20203;-72
2024/01/01 10:24:00;;;;;;;3.13;0.60;;;;;;;7.80;100.00;97568.44;5095063;28;20223;-72
2024/01/01 10:26:26;;;;;;;3.13;0.87;;;;;;;7.89;100.00;97576.91;5094796;28;20199;-73
2024/01/01 10:28:53;;;;;;;2.50;0.90;;;;;;;7.83;100.00;97575.94;5095054;28;20210;-72
2024/01/01 10:31:19;;;;;;;1.90;0.70;;;;;;;7.91;100.00;97582.78;5094926;28;20204;-72
2024/01/01 10:33:49;;;;;;;5.10;1.13;;;;;;;7.96;100.00;97572.41;5094522;28;20207;-72
2024/01/01 10:36:16;;;;;;;3.77;0.93;;;;;;;7.94;100.00;97574.44;5095135;28;20223;-72
2024/01/01 10:38:45;;;;;;;3.33;1.20;;;;;;;7.95;100.00;97576.06;5094830;28;20202;-72
2024/01/01 10:41:12;;;;;;;3.67;1.00;;;;;;;8.00;100.00;97578.88;5094545;28;20214;-72
2024/01/01 10:43:40;;;;;;;6.70;1.30;;;;;;;7.87;100.00;97574.47;5094881;28;20206;-72
2024/01/01 10:46:07;;;;;;;5.83;1.43;;;;;;;7.91;100.00;97585.44;5094759;28;20231;-72
2024/01/01 10:48:35;;;;;;;3.07;1.20;;;;;;;7.92;100.00;97589.72;5094259;28;20217;-72
2024/01/01 10:51:08;;;;;;;3.30;1.10;;;;;;;7.92;100.00;97597.69;5094634;28;20227;-72
2024/01/01 10:54:09;;;;;;;4.43;1.50;;;;;;;7.87;100.00;97598.28;5094679;28;20186;-72
2024/01/01 10:56:47;;;;;;;3.37;1.10;;;;;;;7.99;100.00;97582.53;5062535;28;20225;-72
2024/01/01 10:59:20;;;;;;;5.43;1.17;;;;;;;7.92;100.00;97593.16;5094481;28;20700;-72
2024/01/01 11:01:50;;;;;;;4.63;1.10;;;;;;;7.92;100.00;97582.59;5094674;28;20199;-72
2024/01/01 11:04:20;;;;;;;6.17;1.57;;;;;;;7.93;100.00;97580.75;5094448;28;20212;-72
2024/01/01 11:06:47;;;;;;;4.00;1.30;;;;;;;7.92;100.00;97576.50;5094070;28;20198;-72
2024/01/01 11:09:19;;;;;;;5.03;1.40;;;;;;;7.95;100.00;97579.53;5094313;28;20239;-72
2024/01/01 11:11:53;;;;;;;4.83;1.63;;;;;;;8.00;100.00;97570.94;5094403;28;20206;-72
2024/01/01 11:14:26;;;;;;;5.40;1.30;;;;;;;8.01;100.00;97572.56;5094112;28;20192;-72
2024/01/01 11:16:54;;;;;;;4.97;1.30;;;;;;;8.04;100.00;97574.78;5093834;28;20210;-72
2024/01/01 11:19:38;;;;;;;6.03;1.40;;;;;;;8.07;100.00;97582.28;5094125;28;20237;-72
2024/01/01 11:22:39;;;;;;;5.67;1.30;;;;;;;8.14;100.00;97591.00;5093603;28;20573;-72
2024/01/01 11:25:06;;;;;;;6.17;1.43;;;;;;;8.19;100.00;97589.31;5076075;28;20197;-74
2024/01/01 11:27:34;;;;;;;6.87;1.60;;;;;;;8.21;100.00;97595.25;5093764;28;20207;-72
2024/01/01 11:30:03;;;;;;;5.73;1.30;;;;;;;8.24;100.00;97591.38;5093504;28;20307;-72
2024/01/01 11:32:29;;;;;;;8.00;1.60;;;;;;;8.24;100.00;97580.78;5093974;28;20199;-72